Time;durP1;ratioP1;P1;durP2;ratioP2;P2;SDS_P1;SDS_P2;PMS_P1;PMS_P2;Temp;Humidity;BMP_temperature;BMP_pressure;BME280_temperature;BME280_humidity;BME280_pressure;Samples;Min_cycle;Max_cycle;Signal;HPM_P1;HPM_P2
2021/10/05 00:00:02;;;;;;;1.83;1.23;;;;;;;11.45;74.75;100789.38;5051279;28;20257;-83
2021/10/05 00:02:28;;;;;;;1.80;1.20;;;;;;;11.43;74.57;100801.94;5051855;28;20219;-85
2021/10/05 00:04:55;;;;;;;1.30;1.20;;;;;;;11.40;75.13;100804.78;5037249;28;20219;-84
2021/10/05 00:07:21;;;;;;;1.90;1.17;;;;;;;11.40;75.46;100809.28;5045217;28;20214;-83
2021/10/05 00:09:50;;;;;;;1.43;1.10;;;;;;;11.41;75.45;100811.84;5041655;28;20231;-83
2021/10/05 00:12:16;;;;;;;1.10;1.00;;;;;;;11.41;75.53;100806.50;5035299;28;20236;-84
2021/10/05 00:14:44;;;;;;;1.73;1.27;;;;;;;11.42;75.69;100807.38;5039672;28;20577;-84
2021/10/05 00:17:10;;;;;;;6.83;1.30;;;;;;;11.43;75.61;100796.59;5057230;28;20215;-84
2021/10/05 00:19:37;;;;;;;1.90;1.23;;;;;;;11.44;75.77;100792.13;5046443;28;20237;-83
2021/10/05 00:22:04;;;;;;;1.47;1.00;;;;;;;11.44;76.19;100784.97;5073785;28;20219;-84
2021/10/05 00:24:31;;;;;;;1.10;1.00;;;;;;;11.45;75.77;100780.50;5044704;28;20213;-84
2021/10/05 00:26:58;;;;;;;1.60;1.30;;;;;;;11.43;75.84;100780.59;5065749;28;20299;-84
2021/10/05 00:29:25;;;;;;;1.57;1.20;;;;;;;11.38;75.70;100782.69;5048945;28;20849;-84
2021/10/05 00:31:51;;;;;;;1.20;1.10;;;;;;;11.34;75.57;100773.19;5043495;28;20229;-83
2021/10/05 00:34:18;;;;;;;1.77;1.30;;;;;;;11.29;75.53;100761.94;5043942;28;20206;-84
2021/10/05 00:36:45;;;;;;;1.33;1.10;;;;;;;11.25;75.81;100756.94;5037768;28;20210;-84
2021/10/05 00:39:11;;;;;;;2.30;1.50;;;;;;;11.21;75.80;100750.94;5039137;28;20245;-84
2021/10/05 00:41:38;;;;;;;3.00;1.37;;;;;;;11.18;75.98;100753.78;5052934;28;20202;-84
2021/10/05 00:44:06;;;;;;;1.40;1.20;;;;;;;11.14;76.09;100741.59;5057076;28;20244;-83
2021/10/05 00:46:34;;;;;;;1.30;1.20;;;;;;;11.11;76.12;100739.13;5057631;28;20261;-84
2021/10/05 00:49:00;;;;;;;1.80;1.20;;;;;;;11.08;76.38;100734.88;5068962;28;20206;-84
2021/10/05 00:51:27;;;;;;;1.50;1.40;;;;;;;11.08;76.65;100736.69;5057148;28;20253;-85
2021/10/05 00:53:54;;;;;;;1.30;1.20;;;;;;;11.09;76.65;100739.25;5055346;28;20566;-85
2021/10/05 00:56:21;;;;;;;2.13;1.40;;;;;;;11.08;76.77;100734.88;5055127;28;20687;-85
2021/10/05 00:58:48;;;;;;;1.90;1.47;;;;;;;11.09;76.91;100731.25;5038280;28;20213;-83
2021/10/05 01:01:16;;;;;;;2.63;1.57;;;;;;;11.11;76.98;100725.81;5055491;28;20225;-91
2021/10/05 01:03:43;;;;;;;1.43;1.20;;;;;;;11.11;77.26;100734.66;5049636;28;20214;-90
2021/10/05 01:06:10;;;;;;;1.33;1.23;;;;;;;11.11;76.96;100737.31;5036507;28;20201;-90
2021/10/05 01:08:37;;;;;;;1.40;1.30;;;;;;;11.13;77.14;100726.56;5049765;28;20730;-90
2021/10/05 01:11:03;;;;;;;2.03;1.50;;;;;;;11.14;77.14;100723.81;5036328;28;20237;-90
2021/10/05 01:13:32;;;;;;;1.50;1.40;;;;;;;11.14;77.20;100722.94;5042224;28;20241;-90
2021/10/05 01:15:59;;;;;;;1.60;1.50;;;;;;;11.16;76.97;100713.03;5036056;28;20206;-90
2021/10/05 01:18:27;;;;;;;1.80;1.53;;;;;;;11.16;77.21;100710.38;5038146;28;20687;-90
2021/10/05 01:20:59;;;;;;;1.90;1.30;;;;;;;11.16;77.54;100709.53;5052574;28;20238;-90
2021/10/05 01:23:27;;;;;;;1.67;1.43;;;;;;;11.14;77.19;100713.16;5052406;28;21992;-90
2021/10/05 01:25:54;;;;;;;1.50;1.30;;;;;;;11.12;76.95;100709.72;5053683;28;20209;-90
2021/10/05 01:28:22;;;;;;;1.93;1.20;;;;;;;11.11;77.46;100708.00;5051893;28;20292;-89
2021/10/05 01:30:49;;;;;;;1.53;1.40;;;;;;;11.10;77.41;100706.31;5043612;28;20230;-88
2021/10/05 01:33:16;;;;;;;2.43;1.33;;;;;;;11.09;77.66;100704.63;5056275;28;20213;-87
2021/10/05 01:35:43;;;;;;;1.97;1.37;;;;;;;11.08;77.56;100692.25;5055079;28;20202;-90
2021/10/05 01:38:11;;;;;;;2.70;1.33;;;;;;;11.06;77.72;100688.81;5064011;28;20208;-88
2021/10/05 01:40:38;;;;;;;1.57;1.40;;;;;;;11.06;78.11;100688.81;5046437;28;20244;-88
2021/10/05 01:43:05;;;;;;;1.60;1.50;;;;;;;11.08;77.84;100683.38;5065285;28;20237;-88
2021/10/05 01:45:32;;;;;;;1.47;1.37;;;;;;;11.08;77.88;100680.72;5047276;28;20293;-88
2021/10/05 01:47:59;;;;;;;1.53;1.43;;;;;;;11.08;77.93;100678.91;5041250;28;20207;-87
2021/10/05 01:50:27;;;;;;;1.33;1.23;;;;;;;11.10;78.14;100679.66;5057619;28;20314;-87
2021/10/05 01:52:54;;;;;;;1.97;1.77;;;;;;;11.10;77.96;100677.00;5063011;28;20236;-86
2021/10/05 01:55:24;;;;;;;1.80;1.70;;;;;;;11.11;78.37;100672.50;5052928;28;20305;-87
2021/10/05 01:57:51;;;;;;;2.17;1.37;;;;;;;11.12;78.57;100663.56;5052835;28;20635;-87
2021/10/05 02:00:18;;;;;;;1.93;1.53;;;;;;;11.12;78.65;100664.41;5053900;28;20234;-87
2021/10/05 02:02:45;;;;;;;3.60;1.70;;;;;;;11.13;78.50;100662.59;5045689;28;20206;-88
2021/10/05 02:05:12;;;;;;;1.80;1.43;;;;;;;11.13;78.58;100663.44;5034708;28;20217;-87
2021/10/05 02:07:39;;;;;;;3.90;2.10;;;;;;;11.12;78.54;100658.22;5034421;28;20296;-87
2021/10/05 02:10:08;;;;;;;2.03;1.70;;;;;;;11.12;78.70;100650.22;5046521;28;20265;-88
2021/10/05 02:12:36;;;;;;;3.60;1.80;;;;;;;11.13;78.74;100649.25;5043214;28;20239;-88
2021/10/05 02:15:04;;;;;;;2.30;1.80;;;;;;;11.13;78.99;100639.47;5055989;28;20292;-88
2021/10/05 02:17:30;;;;;;;1.77;1.67;;;;;;;11.15;78.79;100634.03;5042669;28;20655;-88
2021/10/05 02:19:57;;;;;;;3.60;2.27;;;;;;;11.17;79.08;100637.44;5033213;28;20242;-87
2021/10/05 02:22:24;;;;;;;2.77;2.10;;;;;;;11.17;79.18;100625.94;5033145;28;20214;-89
2021/10/05 02:24:50;;;;;;;3.13;2.10;;;;;;;11.18;79.25;100630.31;5047584;28;20662;-88
2021/10/05 02:27:20;;;;;;;2.00;1.80;;;;;;;11.17;79.27;100624.13;5040520;28;20304;-89
2021/10/05 02:29:48;;;;;;;1.80;1.70;;;;;;;11.19;79.46;100619.56;5039661;28;20236;-88
2021/10/05 02:32:15;;;;;;;1.93;1.77;;;;;;;11.19;79.33;100624.03;5032664;28;20226;-89
2021/10/05 02:34:42;;;;;;;3.63;1.70;;;;;;;11.18;79.32;100617.00;5055383;28;20210;-89
2021/10/05 02:37:09;;;;;;;1.80;1.60;;;;;;;11.18;79.42;100612.50;5073540;28;20299;-87
2021/10/05 02:39:36;;;;;;;2.00;1.70;;;;;;;11.17;79.51;100610.78;5054069;28;20226;-88
2021/10/05 02:42:03;;;;;;;2.43;1.20;;;;;;;11.14;79.78;100611.00;5047924;28;20233;-88
2021/10/05 02:44:30;;;;;;;1.40;1.30;;;;;;;11.15;79.69;100612.72;5053821;28;20678;-87
2021/10/05 02:46:58;;;;;;;2.23;1.67;;;;;;;11.16;79.85;100616.22;5053166;28;20301;-87
2021/10/05 02:49:24;;;;;;;3.00;1.83;;;;;;;11.16;79.86;100609.09;5039049;28;20244;-88
2021/10/05 02:51:51;;;;;;;1.73;1.27;;;;;;;11.16;80.02;100606.44;5048255;28;20233;-88
2021/10/05 02:54:18;;;;;;;2.13;1.40;;;;;;;11.18;79.96;100601.84;5034196;28;20212;-88
2021/10/05 02:56:44;;;;;;;3.00;1.70;;;;;;;11.20;80.03;100615.06;5048743;28;20216;-88
2021/10/05 02:59:12;;;;;;;1.90;1.40;;;;;;;11.20;80.07;100604.41;5052487;28;20644;-88
2021/10/05 03:01:39;;;;;;;2.13;1.40;;;;;;;11.21;80.37;100600.78;5052478;28;20209;-88
2021/10/05 03:04:07;;;;;;;1.50;1.40;;;;;;;11.20;80.16;100597.28;5046113;28;20218;-88
2021/10/05 03:06:33;;;;;;;2.30;1.67;;;;;;;11.22;80.03;100592.69;5046863;28;20393;-89
2021/10/05 03:09:00;;;;;;;2.23;1.60;;;;;;;11.21;80.33;100593.66;5047242;28;20228;-89
2021/10/05 03:11:27;;;;;;;1.90;1.73;;;;;;;11.23;80.24;100583.75;5032532;28;20215;-89
2021/10/05 03:13:53;;;;;;;3.90;1.97;;;;;;;11.24;80.36;100579.28;5049549;28;20211;-88
2021/10/05 03:16:20;;;;;;;1.73;1.63;;;;;;;11.26;80.17;100572.03;5063561;28;20572;-87
2021/10/05 03:18:47;;;;;;;3.13;1.80;;;;;;;11.27;80.46;100565.75;5040373;28;20292;-87
2021/10/05 03:21:16;;;;;;;2.63;1.90;;;;;;;11.28;80.76;100565.63;5043525;28;20235;-87
2021/10/05 03:23:43;;;;;;;2.00;1.60;;;;;;;11.29;80.59;100561.97;5053376;28;20206;-89
2021/10/05 03:26:09;;;;;;;3.63;1.90;;;;;;;11.31;80.49;100564.53;5038769;28;20607;-89
2021/10/05 03:28:36;;;;;;;1.80;1.70;;;;;;;11.31;80.55;100567.22;5046115;28;20572;-89
2021/10/05 03:31:03;;;;;;;1.90;1.70;;;;;;;11.31;80.58;100560.06;5051675;28;20233;-88
2021/10/05 03:33:29;;;;;;;1.77;1.60;;;;;;;11.32;80.55;100567.13;5047032;28;20230;-88
2021/10/05 03:35:56;;;;;;;2.63;1.30;;;;;;;11.34;80.51;100565.19;5043683;28;20312;-89
2021/10/05 03:38:24;;;;;;;3.33;1.63;;;;;;;11.33;80.62;100555.50;5046166;28;20296;-88
2021/10/05 03:40:51;;;;;;;1.60;1.50;;;;;;;11.34;80.49;100546.53;5042000;28;20238;-88
2021/10/05 03:43:17;;;;;;;3.13;1.93;;;;;;;11.37;80.64;100553.47;5047677;28;20298;-88
2021/10/05 03:45:44;;;;;;;1.90;1.60;;;;;;;11.38;80.55;100549.84;5043133;28;20205;-87
2021/10/05 03:48:12;;;;;;;1.90;1.80;;;;;;;11.36;80.51;100549.94;5052722;28;20210;-88
2021/10/05 03:50:39;;;;;;;1.67;1.53;;;;;;;11.34;80.54;100546.53;5035580;28;20258;-88
2021/10/05 03:53:06;;;;;;;1.97;1.53;;;;;;;11.32;80.66;100543.13;5049950;28;20718;-88
2021/10/05 03:55:34;;;;;;;1.73;1.63;;;;;;;11.32;80.56;100536.94;5054449;28;20205;-87
2021/10/05 03:58:00;;;;;;;2.30;1.70;;;;;;;11.30;80.56;100536.19;5061238;28;20237;-88
2021/10/05 04:00:27;;;;;;;2.13;1.70;;;;;;;11.30;80.83;100538.84;5057840;28;20314;-88
2021/10/05 04:02:55;;;;;;;2.03;1.90;;;;;;;11.31;80.85;100533.41;5055304;28;20661;-88
2021/10/05 04:05:22;;;;;;;1.70;1.60;;;;;;;11.32;80.86;100539.59;5042560;28;20669;-87
2021/10/05 04:07:48;;;;;;;1.63;1.50;;;;;;;11.33;81.00;100527.97;5049136;28;20285;-88
2021/10/05 04:10:15;;;;;;;3.07;1.57;;;;;;;11.34;80.90;100524.34;5052617;28;20230;-88
2021/10/05 04:12:43;;;;;;;3.73;1.97;;;;;;;11.35;80.96;100523.41;5045355;28;20223;-88
2021/10/05 04:15:10;;;;;;;1.97;1.50;;;;;;;11.34;80.92;100522.53;5052520;28;20209;-89
2021/10/05 04:17:36;;;;;;;1.90;1.70;;;;;;;11.32;80.57;100511.13;5050131;28;20699;-89
2021/10/05 04:20:03;;;;;;;2.07;1.60;;;;;;;11.32;80.74;100515.59;5040356;28;20233;-89
2021/10/05 04:22:31;;;;;;;3.93;2.00;;;;;;;11.32;80.84;100515.59;5044529;28;20293;-88
2021/10/05 04:24:58;;;;;;;2.30;1.30;;;;;;;11.28;81.15;100506.13;5047251;28;20213;-88
2021/10/05 04:27:24;;;;;;;1.70;1.60;;;;;;;11.26;80.86;100505.38;5049396;28;20206;-87
2021/10/05 04:29:52;;;;;;;3.17;1.60;;;;;;;11.25;80.78;100506.34;5041690;28;20228;-88
2021/10/05 04:32:19;;;;;;;2.13;1.77;;;;;;;11.21;81.39;100500.34;5043946;28;20222;-88
2021/10/05 04:34:47;;;;;;;1.97;1.57;;;;;;;11.20;81.16;100490.66;5048383;28;20588;-89
2021/10/05 04:37:13;;;;;;;1.97;1.50;;;;;;;11.20;81.20;100489.78;5050358;28;20209;-89
2021/10/05 04:39:40;;;;;;;2.20;1.60;;;;;;;11.21;81.34;100494.16;5047619;28;20233;-89
2021/10/05 04:42:06;;;;;;;1.50;1.40;;;;;;;11.19;81.24;100480.09;5044154;28;20238;-88
2021/10/05 04:44:33;;;;;;;1.50;1.20;;;;;;;11.20;81.46;100471.13;5042895;28;20216;-88
2021/10/05 04:47:02;;;;;;;1.63;1.50;;;;;;;11.19;81.35;100474.75;5052337;28;20205;-87
2021/10/05 04:49:28;;;;;;;2.63;1.47;;;;;;;11.20;81.36;100468.47;5047937;28;20236;-88
2021/10/05 04:51:55;;;;;;;3.07;1.50;;;;;;;11.19;81.56;100466.75;5058903;28;20208;-89
2021/10/05 04:54:21;;;;;;;1.87;1.67;;;;;;;11.18;81.38;100457.91;5045935;28;20206;-89
2021/10/05 04:56:49;;;;;;;2.33;1.90;;;;;;;11.19;81.33;100448.94;5045799;28;20209;-87
2021/10/05 04:59:17;;;;;;;2.83;1.73;;;;;;;11.21;81.43;100457.69;5048668;28;20233;-87
2021/10/05 05:01:44;;;;;;;2.20;2.00;;;;;;;11.23;81.45;100453.13;5043239;28;20210;-87
2021/10/05 05:04:12;;;;;;;2.20;1.80;;;;;;;11.26;81.55;100454.72;5052599;28;20203;-88
2021/10/05 05:06:39;;;;;;;3.17;2.40;;;;;;;11.29;81.37;100451.81;5047836;28;20216;-88
2021/10/05 05:09:07;;;;;;;4.03;2.07;;;;;;;11.30;81.56;100449.06;5050730;28;20642;-89
2021/10/05 05:11:33;;;;;;;3.73;2.10;;;;;;;11.32;81.42;100444.47;5035773;28;20293;-88
2021/10/05 05:14:05;;;;;;;3.77;1.90;;;;;;;11.33;81.29;100429.31;5042192;28;20592;-89
2021/10/05 05:16:31;;;;;;;2.47;1.97;;;;;;;11.34;81.40;100431.88;5042548;28;20212;-88
2021/10/05 05:18:58;;;;;;;2.47;1.50;;;;;;;11.35;81.32;100433.59;5045847;28;20214;-88
2021/10/05 05:21:26;;;;;;;1.63;1.30;;;;;;;11.36;81.35;100434.44;5043585;28;20294;-88
2021/10/05 05:23:53;;;;;;;1.50;1.30;;;;;;;11.36;81.35;100429.13;5050897;28;20647;-89
2021/10/05 05:26:19;;;;;;;1.77;1.33;;;;;;;11.35;81.21;100424.75;5041043;28;20294;-89
2021/10/05 05:28:46;;;;;;;2.10;1.60;;;;;;;11.35;81.46;100424.75;5043473;28;20202;-88
2021/10/05 05:31:13;;;;;;;2.47;1.80;;;;;;;11.35;81.47;100427.41;5043667;28;20314;-86
2021/10/05 05:33:39;;;;;;;2.77;1.57;;;;;;;11.35;81.49;100422.94;5048097;28;20229;-86
2021/10/05 05:36:06;;;;;;;2.50;1.70;;;;;;;11.34;81.48;100426.56;5048450;28;20205;-88
2021/10/05 05:38:34;;;;;;;4.13;2.40;;;;;;;11.35;81.65;100422.06;5054979;28;20209;-90
2021/10/05 05:41:00;;;;;;;4.23;2.30;;;;;;;11.36;81.70;100415.78;5047118;28;20308;-86
2021/10/05 05:43:27;;;;;;;4.13;2.70;;;;;;;11.37;81.83;100417.50;5044769;28;20206;-88
2021/10/05 05:45:54;;;;;;;3.10;2.50;;;;;;;11.36;82.03;100415.78;5049506;28;20217;-87
2021/10/05 05:48:20;;;;;;;2.70;1.97;;;;;;;11.36;81.97;100413.97;5041798;28;20202;-84
2021/10/05 05:50:47;;;;;;;2.40;1.83;;;;;;;11.36;82.32;100413.97;5057709;28;20687;-84
2021/10/05 05:53:14;;;;;;;3.57;1.87;;;;;;;11.36;82.34;100416.63;5056685;28;20563;-84
2021/10/05 05:55:42;;;;;;;2.13;1.53;;;;;;;11.39;82.31;100423.56;5051168;28;20211;-84
2021/10/05 05:58:10;;;;;;;1.80;1.40;;;;;;;11.40;82.33;100419.94;5045046;28;20213;-84
2021/10/05 06:00:37;;;;;;;1.93;1.40;;;;;;;11.42;82.49;100410.03;5039048;28;20230;-84
2021/10/05 06:03:04;;;;;;;1.77;1.10;;;;;;;11.44;82.39;100403.63;5044288;28;20198;-84
2021/10/05 06:05:31;;;;;;;2.87;1.27;;;;;;;11.47;82.45;100407.88;5066433;28;20257;-84
2021/10/05 06:07:57;;;;;;;3.00;1.40;;;;;;;11.49;82.46;100408.63;5045979;28;20202;-84
2021/10/05 06:10:24;;;;;;;1.60;1.50;;;;;;;11.51;82.61;100406.69;5040762;28;20233;-85
2021/10/05 06:12:53;;;;;;;2.27;1.30;;;;;;;11.53;82.75;100407.44;5040437;28;20261;-85
2021/10/05 06:15:21;;;;;;;1.67;1.47;;;;;;;11.55;82.96;100408.19;5052829;28;20197;-85
2021/10/05 06:17:50;;;;;;;2.43;1.67;;;;;;;11.58;82.76;100399.97;5043908;28;20285;-84
2021/10/05 06:20:19;;;;;;;4.10;1.70;;;;;;;11.60;83.05;100390.06;5044629;28;20259;-84
2021/10/05 06:22:45;;;;;;;1.97;1.60;;;;;;;11.60;83.17;100390.06;5042389;28;20208;-83
2021/10/05 06:25:14;;;;;;;2.50;2.07;;;;;;;11.61;83.13;100390.91;5040222;28;20206;-84
2021/10/05 06:27:40;;;;;;;2.07;1.87;;;;;;;11.60;83.22;100394.53;5034702;28;20233;-86
2021/10/05 06:30:11;;;;;;;1.87;1.70;;;;;;;11.60;83.28;100394.53;5046529;28;20227;-86
2021/10/05 06:32:38;;;;;;;2.53;1.43;;;;;;;11.58;83.48;100399.97;5049656;28;20245;-85
2021/10/05 06:35:06;;;;;;;3.00;1.60;;;;;;;11.61;83.44;100396.25;5035044;28;20210;-84
2021/10/05 06:37:32;;;;;;;2.10;1.87;;;;;;;11.62;83.68;100397.94;5052182;28;20218;-83
2021/10/05 06:39:59;;;;;;;1.60;1.50;;;;;;;11.62;83.76;100401.47;5046519;28;20230;-86
2021/10/05 06:42:25;;;;;;;2.93;1.67;;;;;;;11.64;83.71;100396.03;5046242;28;20202;-86
2021/10/05 06:44:52;;;;;;;7.23;1.90;;;;;;;11.65;83.82;100398.56;5051504;28;20213;-86
2021/10/05 06:47:20;;;;;;;2.63;1.97;;;;;;;11.67;83.88;100399.31;5042453;28;20217;-87
2021/10/05 06:49:46;;;;;;;2.97;1.80;;;;;;;11.68;83.87;100393.00;5053764;28;20234;-84
2021/10/05 06:52:13;;;;;;;2.77;1.80;;;;;;;11.69;84.00;100392.03;5048893;28;20690;-85
2021/10/05 06:54:39;;;;;;;3.83;2.30;;;;;;;11.71;83.96;100379.44;5048077;28;20230;-85
2021/10/05 06:57:06;;;;;;;3.17;2.40;;;;;;;11.73;84.07;100384.69;5044557;28;20214;-86
2021/10/05 06:59:33;;;;;;;4.27;2.50;;;;;;;11.74;84.12;100376.56;5053797;28;20229;-85
2021/10/05 07:01:59;;;;;;;3.07;2.50;;;;;;;11.77;84.18;100380.88;5044353;28;20206;-84
2021/10/05 07:04:27;;;;;;;3.93;2.97;;;;;;;11.79;84.28;100373.59;5047513;28;20201;-84
2021/10/05 07:06:53;;;;;;;2.83;2.40;;;;;;;11.80;84.20;100380.66;5050427;28;20574;-83
2021/10/05 07:09:20;;;;;;;3.00;2.70;;;;;;;11.83;84.42;100377.72;5039737;28;20226;-84
2021/10/05 07:11:48;;;;;;;2.90;2.63;;;;;;;11.83;84.33;100375.06;5051630;28;20320;-86
2021/10/05 07:14:14;;;;;;;4.07;2.80;;;;;;;11.83;84.46;100369.72;5051839;28;20244;-86
2021/10/05 07:16:41;;;;;;;3.43;2.80;;;;;;;11.84;84.45;100379.44;5043322;28;20286;-86
2021/10/05 07:19:08;;;;;;;3.63;2.70;;;;;;;11.82;84.21;100368.88;5054747;28;20209;-86
2021/10/05 07:21:35;;;;;;;5.43;2.50;;;;;;;11.87;84.54;100373.03;5039172;28;20218;-86
2021/10/05 07:24:02;;;;;;;3.20;2.90;;;;;;;11.86;84.58;100366.84;5039975;28;20195;-85
2021/10/05 07:26:29;;;;;;;5.07;2.53;;;;;;;11.88;84.61;100366.72;5048969;28;20294;-86
2021/10/05 07:28:56;;;;;;;3.63;2.50;;;;;;;11.90;84.94;100359.47;5045064;28;20208;-83
2021/10/05 07:31:22;;;;;;;4.00;2.50;;;;;;;11.92;85.23;100357.53;5047658;28;20204;-85
2021/10/05 07:33:49;;;;;;;4.37;2.77;;;;;;;11.93;84.95;100359.25;5045664;28;20297;-86
2021/10/05 07:36:17;;;;;;;3.93;2.70;;;;;;;11.94;85.12;100352.94;5050975;28;20197;-85
2021/10/05 07:38:45;;;;;;;4.93;2.93;;;;;;;11.96;85.08;100356.34;5049965;28;20287;-87
2021/10/05 07:41:13;;;;;;;4.77;2.63;;;;;;;11.96;85.19;100349.19;5044151;28;20228;-86
2021/10/05 07:43:39;;;;;;;3.43;2.67;;;;;;;11.98;85.13;100346.44;5045706;28;20218;-86
2021/10/05 07:46:06;;;;;;;4.30;2.67;;;;;;;11.99;85.32;100343.66;5043108;28;20208;-84
2021/10/05 07:48:33;;;;;;;3.10;2.80;;;;;;;12.00;85.13;100336.50;5048870;28;20283;-84
2021/10/05 07:50:59;;;;;;;3.80;3.30;;;;;;;12.02;85.35;100337.19;5061456;28;20232;-84
2021/10/05 07:53:26;;;;;;;5.40;3.90;;;;;;;12.03;85.29;100338.91;5056074;28;21464;-84
2021/10/05 07:55:53;;;;;;;5.67;4.70;;;;;;;12.05;85.57;100334.31;5053192;28;20227;-85
2021/10/05 07:58:20;;;;;;;5.93;4.43;;;;;;;12.05;85.50;100340.50;5048067;28;20218;-85
2021/10/05 08:00:47;;;;;;;4.17;3.63;;;;;;;12.08;85.48;100331.41;5049874;28;20225;-86
2021/10/05 08:03:13;;;;;;;3.50;3.20;;;;;;;12.10;85.68;100340.16;5054958;28;20198;-85
2021/10/05 08:05:40;;;;;;;3.60;3.27;;;;;;;12.12;85.77;100335.56;5053182;28;20215;-87
2021/10/05 08:08:08;;;;;;;4.70;3.47;;;;;;;12.14;85.95;100330.97;5052271;28;20206;-83
2021/10/05 08:10:35;;;;;;;3.60;3.00;;;;;;;12.16;85.98;100331.72;5042017;28;20227;-85
2021/10/05 08:13:05;;;;;;;4.27;3.03;;;;;;;12.20;86.03;100324.28;5045568;28;20682;-84
2021/10/05 08:15:32;;;;;;;3.80;3.00;;;;;;;12.20;86.10;100314.47;5048198;28;20622;-83
2021/10/05 08:17:58;;;;;;;4.00;3.17;;;;;;;12.21;85.94;100316.19;5045775;28;20551;-84
2021/10/05 08:20:26;;;;;;;4.17;3.37;;;;;;;12.22;86.06;100312.53;5044839;28;20235;-84
2021/10/05 08:22:52;;;;;;;3.77;2.90;;;;;;;12.24;86.12;100304.41;5046973;28;20218;-84
2021/10/05 08:25:19;;;;;;;3.53;3.07;;;;;;;12.25;86.05;100306.97;5047974;28;20716;-86
2021/10/05 08:27:47;;;;;;;3.93;3.20;;;;;;;12.26;85.91;100306.00;5056318;28;20199;-88
2021/10/05 08:30:16;;;;;;;4.33;3.17;;;;;;;12.27;85.84;100299.69;5037231;28;20280;-86
2021/10/05 08:32:43;;;;;;;4.60;2.40;;;;;;;12.29;85.97;100304.94;5047398;28;20208;-87
2021/10/05 08:35:10;;;;;;;2.20;2.00;;;;;;;12.26;85.69;100295.31;5055354;28;20266;-86
2021/10/05 08:37:37;;;;;;;2.53;2.30;;;;;;;12.24;85.40;100299.94;5056057;28;20296;-87
2021/10/05 08:40:06;;;;;;;2.53;1.90;;;;;;;12.23;85.27;100298.22;5056450;28;20229;-87
2021/10/05 08:42:33;;;;;;;5.90;2.20;;;;;;;12.21;84.93;100288.63;5036088;28;20292;-88
2021/10/05 08:44:59;;;;;;;3.13;2.07;;;;;;;12.22;85.49;100288.50;5050618;28;20212;-86
2021/10/05 08:47:29;;;;;;;2.77;2.03;;;;;;;12.22;85.43;100280.50;5037404;28;20638;-87
2021/10/05 08:49:56;;;;;;;2.40;1.53;;;;;;;12.23;85.53;100276.88;5055148;28;20236;-87
2021/10/05 08:52:23;;;;;;;2.40;1.73;;;;;;;12.24;85.42;100269.72;5046661;28;20292;-87
2021/10/05 08:54:49;;;;;;;2.33;1.73;;;;;;;12.22;85.30;100258.28;5050788;28;20229;-87
2021/10/05 08:57:16;;;;;;;2.67;1.93;;;;;;;12.24;85.17;100259.88;5040460;28;20637;-87
2021/10/05 08:59:43;;;;;;;2.43;1.87;;;;;;;12.24;85.28;100251.88;5036355;28;20230;-87
2021/10/05 09:02:12;;;;;;;2.23;1.60;;;;;;;12.22;85.06;100245.78;5039129;28;20224;-87
2021/10/05 09:04:40;;;;;;;2.00;1.40;;;;;;;12.25;85.16;100244.72;5053201;28;20217;-87
2021/10/05 09:07:16;;;;;;;2.60;1.57;;;;;;;12.25;85.05;100234.03;5040306;28;20653;-86
2021/10/05 09:09:54;;;;;;;3.00;1.30;;;;;;;12.25;84.98;100234.88;5055708;28;20230;-87
2021/10/05 09:12:25;;;;;;;2.37;1.80;;;;;;;12.28;85.08;100231.97;5042510;28;20302;-87
2021/10/05 09:14:51;;;;;;;2.03;1.50;;;;;;;12.30;84.79;100224.72;5042535;28;20595;-87
2021/10/05 09:17:22;;;;;;;1.50;1.20;;;;;;;12.33;84.85;100228.97;5041027;28;20205;-87
2021/10/05 09:19:51;;;;;;;2.30;1.43;;;;;;;12.33;84.99;100218.28;5048280;28;20719;-86
2021/10/05 09:22:19;;;;;;;1.90;1.30;;;;;;;12.33;84.89;100212.94;5048175;28;20229;-87
2021/10/05 09:24:47;;;;;;;2.80;1.50;;;;;;;12.38;85.05;100211.59;5044947;28;20203;-87
2021/10/05 09:27:15;;;;;;;1.43;1.20;;;;;;;12.42;85.18;100209.53;5048590;28;20218;-87
2021/10/05 09:29:42;;;;;;;1.60;1.10;;;;;;;12.47;85.23;100216.25;5053318;28;20241;-86
2021/10/05 09:32:10;;;;;;;1.57;1.30;;;;;;;12.51;85.26;100201.69;5050521;28;20205;-87
2021/10/05 09:34:43;;;;;;;1.23;1.10;;;;;;;12.54;85.06;100195.22;5044940;28;20228;-85
2021/10/05 09:37:14;;;;;;;1.50;1.00;;;;;;;12.56;84.89;100192.44;5047556;28;20646;-86
2021/10/05 09:39:44;;;;;;;1.53;1.17;;;;;;;12.56;84.61;100198.63;5045601;28;20725;-84
2021/10/05 09:42:11;;;;;;;1.17;1.07;;;;;;;12.58;84.62;100201.19;5043947;28;20699;-87
2021/10/05 09:44:38;;;;;;;1.07;0.93;;;;;;;12.59;84.68;100190.38;5035431;28;20628;-86
2021/10/05 09:47:05;;;;;;;0.83;0.80;;;;;;;12.63;84.52;100193.66;5037018;28;20214;-85
2021/10/05 09:49:41;;;;;;;1.80;1.00;;;;;;;12.63;84.55;100191.00;5048004;28;20226;-85
2021/10/05 09:52:09;;;;;;;2.30;1.20;;;;;;;12.66;84.57;100188.06;5046259;28;20204;-87
2021/10/05 09:54:37;;;;;;;1.37;0.70;;;;;;;12.67;84.10;100189.78;5054808;28;20226;-86
2021/10/05 09:57:03;;;;;;;1.47;0.70;;;;;;;12.68;84.41;100187.00;5038756;28;20411;-87
2021/10/05 09:59:30;;;;;;;1.00;0.90;;;;;;;12.70;84.15;100181.53;5045131;28;20237;-86
2021/10/05 10:01:58;;;;;;;0.97;0.90;;;;;;;12.73;83.91;100181.25;5052310;28;20213;-85
2021/10/05 10:04:25;;;;;;;2.40;0.90;;;;;;;12.75;83.75;100190.00;5045980;28;20210;-86
2021/10/05 10:06:53;;;;;;;1.93;0.97;;;;;;;12.77;83.49;100190.72;5048386;28;20210;-86
2021/10/05 10:09:21;;;;;;;1.10;1.00;;;;;;;12.80;83.40;100186.00;5053960;28;20229;-87
2021/10/05 10:11:49;;;;;;;2.50;1.50;;;;;;;12.84;83.61;100186.63;5053254;28;20228;-86
2021/10/05 10:14:19;;;;;;;2.50;1.30;;;;;;;12.90;83.44;100198.66;5054537;28;20239;-86
2021/10/05 10:16:48;;;;;;;3.30;1.57;;;;;;;12.94;83.48;100192.91;5037273;28;20203;-86
2021/10/05 10:19:25;;;;;;;2.00;1.80;;;;;;;12.99;83.44;100188.06;5049976;28;20215;-86
2021/10/05 10:21:52;;;;;;;3.10;2.10;;;;;;;13.03;83.42;100186.00;5047849;28;20217;-88
2021/10/05 10:24:19;;;;;;;2.30;1.60;;;;;;;13.06;83.63;100188.41;5056339;28;20208;-85
2021/10/05 10:26:48;;;;;;;2.57;1.70;;;;;;;13.10;83.24;100182.66;5056453;28;20220;-86
2021/10/05 10:29:27;;;;;;;3.00;1.50;;;;;;;13.14;83.13;100178.78;5033788;28;20284;-86
2021/10/05 10:31:53;;;;;;;1.53;1.10;;;;;;;13.15;83.01;100177.84;5034220;28;20206;-85
2021/10/05 10:34:21;;;;;;;1.43;1.20;;;;;;;13.17;83.12;100183.06;5033477;28;20226;-86
2021/10/05 10:36:48;;;;;;;1.50;1.07;;;;;;;13.19;82.98;100190.00;5033511;28;20280;-86
2021/10/05 10:39:17;;;;;;;1.93;1.30;;;;;;;13.20;82.98;100181.00;5049353;28;20193;-86
2021/10/05 10:41:46;;;;;;;1.70;1.17;;;;;;;13.20;82.64;100172.97;5042168;28;20205;-85
2021/10/05 10:44:16;;;;;;;2.13;1.20;;;;;;;13.22;82.54;100163.97;5051025;28;20202;-85
2021/10/05 10:46:44;;;;;;;2.53;1.33;;;;;;;13.25;82.67;100147.69;5040102;28;20206;-86
2021/10/05 10:49:15;;;;;;;1.27;1.13;;;;;;;13.26;82.61;100150.22;5051939;28;20227;-86
2021/10/05 10:51:44;;;;;;;2.30;1.63;;;;;;;13.30;82.14;100150.81;5053594;28;20201;-86
2021/10/05 10:54:14;;;;;;;2.17;1.67;;;;;;;13.35;82.23;100153.97;5051840;28;20718;-87
2021/10/05 10:56:41;;;;;;;1.90;1.70;;;;;;;13.38;82.38;100149.22;5053374;28;20224;-88
2021/10/05 10:59:10;;;;;;;2.80;1.60;;;;;;;13.43;82.16;100146.16;5034786;28;20209;-86
2021/10/05 11:01:42;;;;;;;1.73;1.33;;;;;;;13.47;82.01;100137.75;5044328;28;20576;-86
2021/10/05 11:04:11;;;;;;;2.30;1.47;;;;;;;13.52;82.07;100140.88;5040150;28;20243;-86
2021/10/05 11:06:39;;;;;;;1.80;1.20;;;;;;;13.59;82.54;100143.91;5052865;28;20636;-85
2021/10/05 11:09:07;;;;;;;2.97;1.90;;;;;;;13.64;82.26;100152.38;5057726;28;20725;-85
2021/10/05 11:11:37;;;;;;;3.73;1.30;;;;;;;13.69;81.62;100147.50;5053543;28;20213;-86
2021/10/05 11:14:06;;;;;;;2.87;1.77;;;;;;;13.73;81.29;100142.75;5058217;28;20695;-86
2021/10/05 11:16:34;;;;;;;1.90;1.50;;;;;;;13.76;81.56;100138.00;5052922;28;20717;-84
2021/10/05 11:19:06;;;;;;;1.97;1.40;;;;;;;13.82;81.42;100147.31;5047711;28;20608;-87
2021/10/05 11:21:35;;;;;;;1.70;1.40;;;;;;;13.85;81.41;100145.22;5050705;28;20212;-85
2021/10/05 11:24:01;;;;;;;1.87;1.20;;;;;;;13.88;80.92;100131.59;5043719;28;20214;-87